Mount Pleasant, Iowa
Current Conditions -  °F | °C
As of 8:15 AM on Thursday 27 Nov 2014 (Local Time) from KMPZ Reporting Station
Clear Clear  
Wind Chill:   Ceiling: Unl
Heat Index: 16°   Visibility: 10mi
Dew Point: 11°   Wind: 12mph
Humidity: 80%   Direction: 290°WNW
Pressure: 30.46"   Gusts: 20mph
Location:  40.97°N, 91.55°W
Report Text: KMPZ 271415Z AUTO 29010G17KT 10SM CLR M09/M12 A3046 RMK AO2 T10871116
Loading
Personal Weather Stations






























Interactive Weather Map New forecast layout! Learn more

10-Day Weather Forecast

Advertisements
Track Severe Weather on mobile